sensor_id;sensor_type;location;lat;lon;timestamp;P1;durP1;ratioP1;P2;durP2;ratioP2
22318;SDS011;11327;52.334;9.506;2022-12-07T03:17:11;25.30;;;14.68;;
22318;SDS011;11327;52.334;9.506;2022-12-07T03:20:44;24.75;;;14.28;;
22318;SDS011;11327;52.334;9.506;2022-12-07T03:24:09;26.15;;;13.90;;
22318;SDS011;11327;52.334;9.506;2022-12-07T03:27:57;25.00;;;13.40;;
22318;SDS011;11327;52.334;9.506;2022-12-07T03:34:46;22.82;;;12.68;;
22318;SDS011;11327;52.334;9.506;2022-12-07T03:38:19;22.73;;;12.88;;
22318;SDS011;11327;52.334;9.506;2022-12-07T03:41:42;28.27;;;12.70;;
22318;SDS011;11327;52.334;9.506;2022-12-07T03:45:03;22.87;;;12.60;;
22318;SDS011;11327;52.334;9.506;2022-12-07T03:48:29;21.95;;;12.28;;
22318;SDS011;11327;52.334;9.506;2022-12-07T03:52:08;23.20;;;12.65;;
22318;SDS011;11327;52.334;9.506;2022-12-07T03:55:31;27.20;;;13.48;;
22318;SDS011;11327;52.334;9.506;2022-12-07T03:58:55;25.32;;;13.18;;
22318;SDS011;11327;52.334;9.506;2022-12-07T04:02:16;25.62;;;13.15;;
22318;SDS011;11327;52.334;9.506;2022-12-07T04:05:38;25.90;;;13.93;;
22318;SDS011;11327;52.334;9.506;2022-12-07T04:09:00;25.90;;;13.60;;
22318;SDS011;11327;52.334;9.506;2022-12-07T04:12:21;28.35;;;14.15;;
22318;SDS011;11327;52.334;9.506;2022-12-07T04:15:43;26.55;;;13.85;;
22318;SDS011;11327;52.334;9.506;2022-12-07T04:19:04;24.65;;;12.95;;
22318;SDS011;11327;52.334;9.506;2022-12-07T04:22:25;27.70;;;13.25;;
22318;SDS011;11327;52.334;9.506;2022-12-07T04:25:47;25.60;;;12.78;;
22318;SDS011;11327;52.334;9.506;2022-12-07T04:29:09;24.43;;;11.97;;
22318;SDS011;11327;52.334;9.506;2022-12-07T04:32:30;27.93;;;12.23;;
22318;SDS011;11327;52.334;9.506;2022-12-07T04:35:51;22.45;;;11.50;;
22318;SDS011;11327;52.334;9.506;2022-12-07T04:39:17;23.95;;;11.95;;
22318;SDS011;11327;52.334;9.506;2022-12-07T04:42:42;22.65;;;10.78;;
22318;SDS011;11327;52.334;9.506;2022-12-07T04:46:04;20.50;;;10.80;;
22318;SDS011;11327;52.334;9.506;2022-12-07T04:49:25;18.60;;;10.08;;
22318;SDS011;11327;52.334;9.506;2022-12-07T04:52:46;16.95;;;9.90;;
22318;SDS011;11327;52.334;9.506;2022-12-07T04:56:07;20.62;;;9.75;;
22318;SDS011;11327;52.334;9.506;2022-12-07T04:59:28;19.17;;;9.30;;
22318;SDS011;11327;52.334;9.506;2022-12-07T05:02:49;21.25;;;9.88;;
22318;SDS011;11327;52.334;9.506;2022-12-07T05:06:10;20.30;;;9.23;;
22318;SDS011;11327;52.334;9.506;2022-12-07T05:09:31;17.02;;;8.65;;
22318;SDS011;11327;52.334;9.506;2022-12-07T05:12:52;17.32;;;8.88;;
22318;SDS011;11327;52.334;9.506;2022-12-07T05:16:13;16.50;;;8.38;;
22318;SDS011;11327;52.334;9.506;2022-12-07T05:19:34;18.55;;;8.40;;
22318;SDS011;11327;52.334;9.506;2022-12-07T05:22:55;16.12;;;8.23;;
22318;SDS011;11327;52.334;9.506;2022-12-07T05:26:18;14.10;;;7.92;;
22318;SDS011;11327;52.334;9.506;2022-12-07T05:29:39;15.03;;;8.40;;
22318;SDS011;11327;52.334;9.506;2022-12-07T05:33:00;14.47;;;8.13;;
22318;SDS011;11327;52.334;9.506;2022-12-07T05:36:21;14.60;;;7.40;;
22318;SDS011;11327;52.334;9.506;2022-12-07T05:39:42;15.30;;;7.65;;
22318;SDS011;11327;52.334;9.506;2022-12-07T05:43:04;15.20;;;7.80;;
22318;SDS011;11327;52.334;9.506;2022-12-07T05:46:25;16.35;;;8.23;;
22318;SDS011;11327;52.334;9.506;2022-12-07T05:49:46;16.97;;;7.60;;
22318;SDS011;11327;52.334;9.506;2022-12-07T05:53:07;13.88;;;7.00;;
22318;SDS011;11327;52.334;9.506;2022-12-07T05:56:28;14.18;;;6.78;;
22318;SDS011;11327;52.334;9.506;2022-12-07T05:59:49;13.13;;;6.35;;
22318;SDS011;11327;52.334;9.506;2022-12-07T06:03:10;13.20;;;6.90;;
22318;SDS011;11327;52.334;9.506;2022-12-07T06:06:31;14.28;;;6.17;;
22318;SDS011;11327;52.334;9.506;2022-12-07T06:09:52;11.18;;;5.55;;
22318;SDS011;11327;52.334;9.506;2022-12-07T06:13:13;11.25;;;6.03;;
22318;SDS011;11327;52.334;9.506;2022-12-07T06:16:34;10.25;;;6.03;;
22318;SDS011;11327;52.334;9.506;2022-12-07T06:19:55;10.85;;;5.08;;
22318;SDS011;11327;52.334;9.506;2022-12-07T06:23:16;9.53;;;5.47;;
22318;SDS011;11327;52.334;9.506;2022-12-07T06:26:37;9.03;;;4.70;;
22318;SDS011;11327;52.334;9.506;2022-12-07T06:29:58;13.15;;;5.55;;
22318;SDS011;11327;52.334;9.506;2022-12-07T06:33:20;10.18;;;5.10;;
22318;SDS011;11327;52.334;9.506;2022-12-07T06:36:41;10.25;;;5.20;;
22318;SDS011;11327;52.334;9.506;2022-12-07T06:40:02;8.70;;;4.05;;
22318;SDS011;11327;52.334;9.506;2022-12-07T06:43:23;13.62;;;5.33;;
22318;SDS011;11327;52.334;9.506;2022-12-07T06:46:44;10.00;;;4.65;;
22318;SDS011;11327;52.334;9.506;2022-12-07T06:50:06;9.88;;;4.20;;
22318;SDS011;11327;52.334;9.506;2022-12-07T06:53:28;10.20;;;4.30;;
22318;SDS011;11327;52.334;9.506;2022-12-07T06:56:48;6.53;;;4.17;;
22318;SDS011;11327;52.334;9.506;2022-12-07T07:00:10;8.60;;;3.98;;
22318;SDS011;11327;52.334;9.506;2022-12-07T07:03:32;9.13;;;3.87;;
22318;SDS011;11327;52.334;9.506;2022-12-07T07:06:53;8.98;;;3.62;;
22318;SDS011;11327;52.334;9.506;2022-12-07T07:10:14;7.50;;;3.45;;
22318;SDS011;11327;52.334;9.506;2022-12-07T07:13:35;7.62;;;3.40;;
22318;SDS011;11327;52.334;9.506;2022-12-07T07:16:56;9.33;;;3.70;;
22318;SDS011;11327;52.334;9.506;2022-12-07T07:20:17;7.20;;;2.67;;
22318;SDS011;11327;52.334;9.506;2022-12-07T07:23:38;6.78;;;2.60;;
22318;SDS011;11327;52.334;9.506;2022-12-07T07:26:59;5.50;;;2.80;;
22318;SDS011;11327;52.334;9.506;2022-12-07T07:30:20;11.25;;;3.20;;
22318;SDS011;11327;52.334;9.506;2022-12-07T07:33:41;9.15;;;3.05;;
22318;SDS011;11327;52.334;9.506;2022-12-07T07:37:02;6.25;;;3.12;;
22318;SDS011;11327;52.334;9.506;2022-12-07T07:40:23;5.92;;;2.95;;
22318;SDS011;11327;52.334;9.506;2022-12-07T07:43:44;6.97;;;2.87;;
22318;SDS011;11327;52.334;9.506;2022-12-07T07:47:05;11.18;;;3.20;;
22318;SDS011;11327;52.334;9.506;2022-12-07T07:50:26;7.78;;;3.00;;
22318;SDS011;11327;52.334;9.506;2022-12-07T07:53:47;7.80;;;2.90;;
22318;SDS011;11327;52.334;9.506;2022-12-07T07:57:08;8.38;;;2.80;;
22318;SDS011;11327;52.334;9.506;2022-12-07T08:00:28;10.30;;;3.65;;
22318;SDS011;11327;52.334;9.506;2022-12-07T08:03:49;5.80;;;2.70;;
22318;SDS011;11327;52.334;9.506;2022-12-07T08:07:11;5.75;;;2.85;;
22318;SDS011;11327;52.334;9.506;2022-12-07T08:10:32;6.08;;;2.52;;
22318;SDS011;11327;52.334;9.506;2022-12-07T08:13:55;6.00;;;2.60;;
22318;SDS011;11327;52.334;9.506;2022-12-07T08:17:16;8.55;;;2.37;;
22318;SDS011;11327;52.334;9.506;2022-12-07T08:20:37;10.65;;;2.77;;
22318;SDS011;11327;52.334;9.506;2022-12-07T08:23:59;9.85;;;2.90;;
22318;SDS011;11327;52.334;9.506;2022-12-07T08:27:20;6.53;;;2.80;;
22318;SDS011;11327;52.334;9.506;2022-12-07T08:30:41;8.48;;;3.12;;
22318;SDS011;11327;52.334;9.506;2022-12-07T08:34:02;6.08;;;3.33;;
22318;SDS011;11327;52.334;9.506;2022-12-07T08:37:23;7.15;;;3.25;;
22318;SDS011;11327;52.334;9.506;2022-12-07T08:40:44;7.75;;;3.12;;
22318;SDS011;11327;52.334;9.506;2022-12-07T08:44:05;7.00;;;2.90;;
22318;SDS011;11327;52.334;9.506;2022-12-07T08:47:26;7.00;;;2.60;;
22318;SDS011;11327;52.334;9.506;2022-12-07T08:50:47;6.53;;;2.70;;
22318;SDS011;11327;52.334;9.506;2022-12-07T08:54:10;6.72;;;2.42;;
22318;SDS011;11327;52.334;9.506;2022-12-07T08:57:33;6.35;;;2.70;;
22318;SDS011;11327;52.334;9.506;2022-12-07T09:00:55;5.53;;;2.75;;
22318;SDS011;11327;52.334;9.506;2022-12-07T09:04:16;4.22;;;2.55;;
22318;SDS011;11327;52.334;9.506;2022-12-07T09:07:38;8.33;;;3.10;;
22318;SDS011;11327;52.334;9.506;2022-12-07T09:10:59;4.45;;;2.30;;
22318;SDS011;11327;52.334;9.506;2022-12-07T09:14:20;6.00;;;2.92;;
22318;SDS011;11327;52.334;9.506;2022-12-07T09:17:42;5.75;;;2.60;;
22318;SDS011;11327;52.334;9.506;2022-12-07T09:21:03;6.12;;;2.60;;
22318;SDS011;11327;52.334;9.506;2022-12-07T09:24:24;6.90;;;2.60;;
22318;SDS011;11327;52.334;9.506;2022-12-07T09:27:45;7.22;;;2.37;;
22318;SDS011;11327;52.334;9.506;2022-12-07T09:31:06;5.12;;;2.20;;
22318;SDS011;11327;52.334;9.506;2022-12-07T09:34:27;5.55;;;2.60;;
22318;SDS011;11327;52.334;9.506;2022-12-07T09:37:49;5.28;;;2.27;;
22318;SDS011;11327;52.334;9.506;2022-12-07T09:41:10;5.42;;;2.25;;
22318;SDS011;11327;52.334;9.506;2022-12-07T09:44:32;4.15;;;2.25;;
22318;SDS011;11327;52.334;9.506;2022-12-07T09:47:54;4.40;;;1.80;;
22318;SDS011;11327;52.334;9.506;2022-12-07T09:54:41;6.62;;;2.22;;
22318;SDS011;11327;52.334;9.506;2022-12-07T09:58:05;5.37;;;1.80;;
22318;SDS011;11327;52.334;9.506;2022-12-07T10:01:27;5.50;;;2.10;;
22318;SDS011;11327;52.334;9.506;2022-12-07T10:04:50;5.45;;;2.50;;
22318;SDS011;11327;52.334;9.506;2022-12-07T10:08:12;7.97;;;2.30;;
22318;SDS011;11327;52.334;9.506;2022-12-07T10:11:34;5.72;;;2.37;;
22318;SDS011;11327;52.334;9.506;2022-12-07T10:14:56;7.62;;;2.42;;
22318;SDS011;11327;52.334;9.506;2022-12-07T10:25:32;7.72;;;3.27;;
22318;SDS011;11327;52.334;9.506;2022-12-07T10:28:56;6.60;;;3.30;;
22318;SDS011;11327;52.334;9.506;2022-12-07T10:32:36;9.85;;;4.50;;
22318;SDS011;11327;52.334;9.506;2022-12-07T10:35:57;11.70;;;4.62;;
22318;SDS011;11327;52.334;9.506;2022-12-07T10:39:20;6.28;;;3.20;;
22318;SDS011;11327;52.334;9.506;2022-12-07T10:42:42;9.90;;;4.72;;
22318;SDS011;11327;52.334;9.506;2022-12-07T11:00:24;7.78;;;3.00;;
22318;SDS011;11327;52.334;9.506;2022-12-07T11:07:29;5.42;;;2.50;;
22318;SDS011;11327;52.334;9.506;2022-12-07T11:14:41;5.60;;;3.17;;
22318;SDS011;11327;52.334;9.506;2022-12-07T11:18:09;7.70;;;3.45;;
22318;SDS011;11327;52.334;9.506;2022-12-07T11:25:31;6.45;;;2.65;;
22318;SDS011;11327;52.334;9.506;2022-12-07T11:39:35;6.25;;;2.35;;
22318;SDS011;11327;52.334;9.506;2022-12-07T11:42:59;7.55;;;2.20;;
22318;SDS011;11327;52.334;9.506;2022-12-07T11:46:27;6.80;;;2.00;;
22318;SDS011;11327;52.334;9.506;2022-12-07T11:53:20;6.15;;;2.40;;
22318;SDS011;11327;52.334;9.506;2022-12-07T11:56:43;5.25;;;2.42;;
22318;SDS011;11327;52.334;9.506;2022-12-07T12:00:06;5.80;;;2.50;;
22318;SDS011;11327;52.334;9.506;2022-12-07T12:03:38;9.03;;;2.87;;
22318;SDS011;11327;52.334;9.506;2022-12-07T12:07:02;7.47;;;2.90;;
22318;SDS011;11327;52.334;9.506;2022-12-07T12:14:00;6.65;;;2.92;;
22318;SDS011;11327;52.334;9.506;2022-12-07T12:24:22;8.30;;;2.70;;
22318;SDS011;11327;52.334;9.506;2022-12-07T12:27:45;9.60;;;2.58;;
22318;SDS011;11327;52.334;9.506;2022-12-07T12:39:12;7.35;;;2.30;;
22318;SDS011;11327;52.334;9.506;2022-12-07T12:48:42;6.65;;;2.00;;
22318;SDS011;11327;52.334;9.506;2022-12-07T12:56:20;6.87;;;2.30;;
22318;SDS011;11327;52.334;9.506;2022-12-07T12:59:33;7.20;;;2.08;;
22318;SDS011;11327;52.334;9.506;2022-12-07T13:02:59;5.47;;;1.98;;
22318;SDS011;11327;52.334;9.506;2022-12-07T13:09:51;7.87;;;2.62;;
22318;SDS011;11327;52.334;9.506;2022-12-07T13:16:39;8.30;;;2.40;;
22318;SDS011;11327;52.334;9.506;2022-12-07T13:20:05;4.10;;;2.02;;
22318;SDS011;11327;52.334;9.506;2022-12-07T13:23:38;4.33;;;1.82;;
22318;SDS011;11327;52.334;9.506;2022-12-07T13:27:06;6.85;;;2.15;;
22318;SDS011;11327;52.334;9.506;2022-12-07T13:30:29;6.33;;;1.87;;
22318;SDS011;11327;52.334;9.506;2022-12-07T13:33:51;8.28;;;1.90;;
22318;SDS011;11327;52.334;9.506;2022-12-07T13:37:15;5.65;;;1.82;;
22318;SDS011;11327;52.334;9.506;2022-12-07T13:40:37;5.15;;;1.67;;
22318;SDS011;11327;52.334;9.506;2022-12-07T13:44:11;5.78;;;2.12;;
22318;SDS011;11327;52.334;9.506;2022-12-07T13:47:48;6.33;;;2.00;;
22318;SDS011;11327;52.334;9.506;2022-12-07T13:51:20;9.20;;;2.75;;
22318;SDS011;11327;52.334;9.506;2022-12-07T13:54:43;13.05;;;6.42;;
22318;SDS011;11327;52.334;9.506;2022-12-07T13:58:07;9.35;;;4.50;;
22318;SDS011;11327;52.334;9.506;2022-12-07T14:01:30;12.75;;;5.25;;
22318;SDS011;11327;52.334;9.506;2022-12-07T14:04:52;12.58;;;4.78;;
22318;SDS011;11327;52.334;9.506;2022-12-07T14:11:41;11.45;;;5.15;;
22318;SDS011;11327;52.334;9.506;2022-12-07T14:15:02;11.57;;;3.65;;
22318;SDS011;11327;52.334;9.506;2022-12-07T14:22:05;8.38;;;4.25;;
22318;SDS011;11327;52.334;9.506;2022-12-07T14:25:22;10.98;;;5.37;;
22318;SDS011;11327;52.334;9.506;2022-12-07T14:28:46;8.53;;;4.35;;
22318;SDS011;11327;52.334;9.506;2022-12-07T14:35:46;8.28;;;3.33;;
22318;SDS011;11327;52.334;9.506;2022-12-07T14:39:07;7.15;;;2.47;;
22318;SDS011;11327;52.334;9.506;2022-12-07T14:42:28;5.33;;;2.50;;
22318;SDS011;11327;52.334;9.506;2022-12-07T14:45:51;7.30;;;2.95;;
22318;SDS011;11327;52.334;9.506;2022-12-07T14:49:12;6.95;;;2.58;;
22318;SDS011;11327;52.334;9.506;2022-12-07T14:52:33;8.03;;;2.80;;
22318;SDS011;11327;52.334;9.506;2022-12-07T14:55:54;7.30;;;2.70;;
22318;SDS011;11327;52.334;9.506;2022-12-07T14:59:15;5.65;;;2.30;;
22318;SDS011;11327;52.334;9.506;2022-12-07T15:02:37;9.93;;;2.62;;
22318;SDS011;11327;52.334;9.506;2022-12-07T15:05:58;6.05;;;3.30;;
22318;SDS011;11327;52.334;9.506;2022-12-07T15:09:19;8.63;;;3.62;;
22318;SDS011;11327;52.334;9.506;2022-12-07T15:12:40;6.28;;;2.90;;
22318;SDS011;11327;52.334;9.506;2022-12-07T15:16:01;5.87;;;2.92;;
22318;SDS011;11327;52.334;9.506;2022-12-07T15:19:23;6.55;;;3.08;;
22318;SDS011;11327;52.334;9.506;2022-12-07T15:22:46;6.25;;;3.52;;
22318;SDS011;11327;52.334;9.506;2022-12-07T15:26:07;7.15;;;2.70;;
22318;SDS011;11327;52.334;9.506;2022-12-07T15:29:28;9.58;;;3.00;;
22318;SDS011;11327;52.334;9.506;2022-12-07T15:32:49;7.67;;;3.95;;
22318;SDS011;11327;52.334;9.506;2022-12-07T15:36:23;5.47;;;2.95;;
22318;SDS011;11327;52.334;9.506;2022-12-07T15:39:41;7.60;;;2.83;;
22318;SDS011;11327;52.334;9.506;2022-12-07T15:43:02;10.30;;;3.27;;
22318;SDS011;11327;52.334;9.506;2022-12-07T15:46:28;6.20;;;3.58;;
22318;SDS011;11327;52.334;9.506;2022-12-07T15:49:51;9.50;;;5.20;;
22318;SDS011;11327;52.334;9.506;2022-12-07T15:53:13;12.23;;;4.83;;
22318;SDS011;11327;52.334;9.506;2022-12-07T15:56:34;9.33;;;4.72;;
22318;SDS011;11327;52.334;9.506;2022-12-07T15:59:55;8.23;;;4.45;;
22318;SDS011;11327;52.334;9.506;2022-12-07T16:03:16;9.10;;;4.85;;
22318;SDS011;11327;52.334;9.506;2022-12-07T16:06:37;11.88;;;5.40;;
22318;SDS011;11327;52.334;9.506;2022-12-07T16:09:59;12.33;;;5.05;;
22318;SDS011;11327;52.334;9.506;2022-12-07T16:13:19;9.63;;;4.22;;
22318;SDS011;11327;52.334;9.506;2022-12-07T16:16:41;8.38;;;4.12;;
22318;SDS011;11327;52.334;9.506;2022-12-07T16:20:03;10.03;;;4.30;;
22318;SDS011;11327;52.334;9.506;2022-12-07T16:23:24;8.63;;;3.87;;
22318;SDS011;11327;52.334;9.506;2022-12-07T16:26:45;9.05;;;3.70;;
22318;SDS011;11327;52.334;9.506;2022-12-07T16:30:07;6.75;;;3.37;;
22318;SDS011;11327;52.334;9.506;2022-12-07T16:33:29;7.90;;;3.50;;
22318;SDS011;11327;52.334;9.506;2022-12-07T16:36:50;8.35;;;4.05;;
22318;SDS011;11327;52.334;9.506;2022-12-07T16:40:11;7.72;;;3.58;;
22318;SDS011;11327;52.334;9.506;2022-12-07T16:43:32;8.63;;;3.42;;
22318;SDS011;11327;52.334;9.506;2022-12-07T16:46:54;9.23;;;4.40;;
22318;SDS011;11327;52.334;9.506;2022-12-07T16:50:14;6.28;;;2.92;;
22318;SDS011;11327;52.334;9.506;2022-12-07T16:53:35;8.48;;;4.47;;
22318;SDS011;11327;52.334;9.506;2022-12-07T16:56:57;8.10;;;3.37;;
22318;SDS011;11327;52.334;9.506;2022-12-07T17:00:19;11.22;;;4.67;;
22318;SDS011;11327;52.334;9.506;2022-12-07T17:03:40;7.95;;;3.60;;
22318;SDS011;11327;52.334;9.506;2022-12-07T17:07:01;12.10;;;5.50;;
22318;SDS011;11327;52.334;9.506;2022-12-07T17:10:23;16.20;;;6.10;;
22318;SDS011;11327;52.334;9.506;2022-12-07T17:13:44;13.40;;;5.50;;
22318;SDS011;11327;52.334;9.506;2022-12-07T17:17:24;10.93;;;4.60;;
22318;SDS011;11327;52.334;9.506;2022-12-07T17:20:45;10.30;;;4.80;;
22318;SDS011;11327;52.334;9.506;2022-12-07T17:24:07;13.78;;;4.42;;
22318;SDS011;11327;52.334;9.506;2022-12-07T17:27:30;7.70;;;3.85;;
22318;SDS011;11327;52.334;9.506;2022-12-07T17:30:51;7.05;;;3.42;;
22318;SDS011;11327;52.334;9.506;2022-12-07T17:34:12;6.10;;;2.98;;
22318;SDS011;11327;52.334;9.506;2022-12-07T17:37:34;6.03;;;2.65;;
22318;SDS011;11327;52.334;9.506;2022-12-07T17:40:55;7.95;;;3.20;;
22318;SDS011;11327;52.334;9.506;2022-12-07T17:44:17;15.88;;;6.15;;
22318;SDS011;11327;52.334;9.506;2022-12-07T17:47:40;17.57;;;9.45;;
22318;SDS011;11327;52.334;9.506;2022-12-07T17:51:01;12.23;;;5.78;;
22318;SDS011;11327;52.334;9.506;2022-12-07T17:54:41;6.00;;;2.60;;
22318;SDS011;11327;52.334;9.506;2022-12-07T17:58:02;9.73;;;4.20;;
22318;SDS011;11327;52.334;9.506;2022-12-07T18:01:23;7.03;;;3.65;;
22318;SDS011;11327;52.334;9.506;2022-12-07T18:04:44;8.75;;;4.40;;
22318;SDS011;11327;52.334;9.506;2022-12-07T18:08:07;9.93;;;3.75;;
22318;SDS011;11327;52.334;9.506;2022-12-07T18:11:28;13.08;;;5.15;;
22318;SDS011;11327;52.334;9.506;2022-12-07T18:14:49;15.68;;;7.40;;
22318;SDS011;11327;52.334;9.506;2022-12-07T18:18:10;14.68;;;4.70;;
22318;SDS011;11327;52.334;9.506;2022-12-07T18:21:31;15.50;;;6.42;;
22318;SDS011;11327;52.334;9.506;2022-12-07T18:24:53;13.60;;;6.42;;
22318;SDS011;11327;52.334;9.506;2022-12-07T18:28:14;13.32;;;5.65;;
22318;SDS011;11327;52.334;9.506;2022-12-07T18:31:36;10.68;;;5.22;;
22318;SDS011;11327;52.334;9.506;2022-12-07T18:34:57;15.60;;;6.03;;
22318;SDS011;11327;52.334;9.506;2022-12-07T18:38:19;8.90;;;5.42;;
22318;SDS011;11327;52.334;9.506;2022-12-07T18:41:40;9.35;;;4.90;;
22318;SDS011;11327;52.334;9.506;2022-12-07T18:45:01;12.03;;;5.53;;
22318;SDS011;11327;52.334;9.506;2022-12-07T18:48:23;11.50;;;4.90;;
22318;SDS011;11327;52.334;9.506;2022-12-07T18:51:44;10.53;;;4.83;;
22318;SDS011;11327;52.334;9.506;2022-12-07T18:55:05;10.70;;;4.97;;
22318;SDS011;11327;52.334;9.506;2022-12-07T18:58:26;8.48;;;4.30;;
22318;SDS011;11327;52.334;9.506;2022-12-07T19:01:49;9.25;;;4.25;;
22318;SDS011;11327;52.334;9.506;2022-12-07T19:05:12;8.95;;;4.55;;
22318;SDS011;11327;52.334;9.506;2022-12-07T19:08:33;8.80;;;4.47;;
22318;SDS011;11327;52.334;9.506;2022-12-07T19:11:55;8.13;;;4.15;;
22318;SDS011;11327;52.334;9.506;2022-12-07T19:15:18;10.95;;;4.70;;
22318;SDS011;11327;52.334;9.506;2022-12-07T19:18:39;8.48;;;3.33;;
22318;SDS011;11327;52.334;9.506;2022-12-07T19:22:00;5.35;;;3.17;;
22318;SDS011;11327;52.334;9.506;2022-12-07T19:25:22;6.33;;;3.72;;
22318;SDS011;11327;52.334;9.506;2022-12-07T19:28:43;7.97;;;4.28;;
22318;SDS011;11327;52.334;9.506;2022-12-07T19:32:04;4.42;;;3.30;;
22318;SDS011;11327;52.334;9.506;2022-12-07T19:35:29;8.55;;;2.98;;
22318;SDS011;11327;52.334;9.506;2022-12-07T19:38:50;5.90;;;3.65;;
22318;SDS011;11327;52.334;9.506;2022-12-07T19:42:11;9.60;;;3.85;;
22318;SDS011;11327;52.334;9.506;2022-12-07T19:45:33;7.10;;;3.30;;
22318;SDS011;11327;52.334;9.506;2022-12-07T19:48:54;7.30;;;3.98;;
22318;SDS011;11327;52.334;9.506;2022-12-07T19:52:15;7.97;;;3.60;;
22318;SDS011;11327;52.334;9.506;2022-12-07T19:55:38;4.90;;;3.47;;
22318;SDS011;11327;52.334;9.506;2022-12-07T19:59:00;6.35;;;3.72;;
22318;SDS011;11327;52.334;9.506;2022-12-07T20:02:22;5.87;;;3.55;;
22318;SDS011;11327;52.334;9.506;2022-12-07T20:05:43;9.30;;;3.80;;
22318;SDS011;11327;52.334;9.506;2022-12-07T20:09:04;7.65;;;4.20;;
22318;SDS011;11327;52.334;9.506;2022-12-07T20:12:25;7.78;;;4.40;;
22318;SDS011;11327;52.334;9.506;2022-12-07T20:16:04;9.15;;;4.30;;
22318;SDS011;11327;52.334;9.506;2022-12-07T20:19:26;8.95;;;4.25;;
22318;SDS011;11327;52.334;9.506;2022-12-07T20:22:47;13.43;;;5.33;;
22318;SDS011;11327;52.334;9.506;2022-12-07T20:29:38;12.43;;;4.87;;
22318;SDS011;11327;52.334;9.506;2022-12-07T20:32:59;10.30;;;5.10;;
22318;SDS011;11327;52.334;9.506;2022-12-07T20:43:21;8.48;;;4.65;;
22318;SDS011;11327;52.334;9.506;2022-12-07T20:46:42;9.85;;;5.47;;
22318;SDS011;11327;52.334;9.506;2022-12-07T20:50:04;11.93;;;4.97;;
22318;SDS011;11327;52.334;9.506;2022-12-07T20:53:26;8.75;;;4.80;;
22318;SDS011;11327;52.334;9.506;2022-12-07T20:56:46;12.07;;;4.50;;
22318;SDS011;11327;52.334;9.506;2022-12-07T21:00:08;8.30;;;4.60;;
22318;SDS011;11327;52.334;9.506;2022-12-07T21:03:29;7.60;;;4.55;;
22318;SDS011;11327;52.334;9.506;2022-12-07T21:06:50;7.83;;;5.20;;
22318;SDS011;11327;52.334;9.506;2022-12-07T21:10:11;8.93;;;5.20;;
22318;SDS011;11327;52.334;9.506;2022-12-07T21:13:32;9.98;;;5.50;;
22318;SDS011;11327;52.334;9.506;2022-12-07T21:16:53;10.35;;;5.42;;
22318;SDS011;11327;52.334;9.506;2022-12-07T21:20:17;12.20;;;5.30;;
22318;SDS011;11327;52.334;9.506;2022-12-07T21:23:37;10.18;;;5.20;;
22318;SDS011;11327;52.334;9.506;2022-12-07T21:26:58;11.18;;;5.72;;
22318;SDS011;11327;52.334;9.506;2022-12-07T21:30:19;11.75;;;5.60;;
22318;SDS011;11327;52.334;9.506;2022-12-07T21:33:42;11.38;;;5.70;;
22318;SDS011;11327;52.334;9.506;2022-12-07T21:37:04;8.78;;;5.53;;
22318;SDS011;11327;52.334;9.506;2022-12-07T21:40:25;10.70;;;5.67;;
22318;SDS011;11327;52.334;9.506;2022-12-07T21:43:45;12.15;;;6.22;;
22318;SDS011;11327;52.334;9.506;2022-12-07T21:47:07;9.08;;;5.20;;
22318;SDS011;11327;52.334;9.506;2022-12-07T21:50:28;9.88;;;5.45;;
22318;SDS011;11327;52.334;9.506;2022-12-07T21:53:50;10.48;;;5.12;;
22318;SDS011;11327;52.334;9.506;2022-12-07T21:57:12;9.55;;;4.70;;
22318;SDS011;11327;52.334;9.506;2022-12-07T22:00:33;9.08;;;5.17;;
22318;SDS011;11327;52.334;9.506;2022-12-07T22:03:54;10.35;;;5.45;;
22318;SDS011;11327;52.334;9.506;2022-12-07T22:07:15;11.22;;;5.70;;
22318;SDS011;11327;52.334;9.506;2022-12-07T22:10:36;14.35;;;6.65;;
22318;SDS011;11327;52.334;9.506;2022-12-07T22:13:57;11.95;;;8.00;;
22318;SDS011;11327;52.334;9.506;2022-12-07T22:17:36;13.58;;;8.45;;
22318;SDS011;11327;52.334;9.506;2022-12-07T22:20:58;13.15;;;8.78;;
22318;SDS011;11327;52.334;9.506;2022-12-07T22:24:19;17.23;;;9.08;;
22318;SDS011;11327;52.334;9.506;2022-12-07T22:27:41;14.25;;;9.68;;
22318;SDS011;11327;52.334;9.506;2022-12-07T22:31:02;14.58;;;9.45;;
22318;SDS011;11327;52.334;9.506;2022-12-07T22:34:24;15.48;;;9.80;;
22318;SDS011;11327;52.334;9.506;2022-12-07T22:37:45;15.75;;;9.65;;
22318;SDS011;11327;52.334;9.506;2022-12-07T22:44:39;16.35;;;10.82;;
22318;SDS011;11327;52.334;9.506;2022-12-07T22:48:02;16.42;;;11.25;;
22318;SDS011;11327;52.334;9.506;2022-12-07T22:51:24;19.17;;;11.25;;
22318;SDS011;11327;52.334;9.506;2022-12-07T22:54:47;18.32;;;12.07;;
22318;SDS011;11327;52.334;9.506;2022-12-07T22:58:08;18.45;;;11.68;;
22318;SDS011;11327;52.334;9.506;2022-12-07T23:01:29;15.65;;;10.80;;
22318;SDS011;11327;52.334;9.506;2022-12-07T23:04:50;14.25;;;9.90;;
22318;SDS011;11327;52.334;9.506;2022-12-07T23:08:11;15.40;;;10.58;;
22318;SDS011;11327;52.334;9.506;2022-12-07T23:11:34;17.65;;;9.40;;
22318;SDS011;11327;52.334;9.506;2022-12-07T23:15:15;13.95;;;9.20;;
22318;SDS011;11327;52.334;9.506;2022-12-07T23:18:36;14.70;;;9.18;;
22318;SDS011;11327;52.334;9.506;2022-12-07T23:21:58;12.23;;;9.43;;
22318;SDS011;11327;52.334;9.506;2022-12-07T23:25:19;15.20;;;8.95;;
22318;SDS011;11327;52.334;9.506;2022-12-07T23:28:40;14.65;;;8.20;;
22318;SDS011;11327;52.334;9.506;2022-12-07T23:32:01;12.35;;;8.03;;
22318;SDS011;11327;52.334;9.506;2022-12-07T23:35:22;13.68;;;8.45;;
22318;SDS011;11327;52.334;9.506;2022-12-07T23:38:43;12.58;;;7.65;;
22318;SDS011;11327;52.334;9.506;2022-12-07T23:42:06;8.83;;;7.12;;
22318;SDS011;11327;52.334;9.506;2022-12-07T23:45:27;10.98;;;7.40;;
22318;SDS011;11327;52.334;9.506;2022-12-07T23:48:48;10.25;;;7.83;;
22318;SDS011;11327;52.334;9.506;2022-12-07T23:52:11;11.70;;;7.33;;
22318;SDS011;11327;52.334;9.506;2022-12-07T23:55:32;10.35;;;7.55;;
22318;SDS011;11327;52.334;9.506;2022-12-07T23:58:53;12.43;;;7.25;;
